Terminal Aerodrome Forecast
Issued by NWS Atlanta, GA

Home | Current Version | Previous Version | Text Only | Print | Product List | Glossary On
Versions: 1 2 3 4 5 6 7 8 9 10 11 12 13 14 15 16 17 18 19 20 21 22 23 24 25 26 27 28 29 30 31 32 33
181
FTUS42 KFFC 281009 AAA
TAFAHN
TAF AMD
KAHN 281009Z 2810/0106 07003KT P6SM BKN015
      TEMPO 2810/2813 4SM BR BKN008
     FM281400 13003KT P6SM BKN025
     FM281900 19007KT P6SM BKN035
     FM282300 16004KT P6SM SCT050 BKN120=

USA.gov is the U.S. government's official web portal to all federal, state and local government web resources and services.